createdAt,value
2018-08-23T00:00:12.126Z,94.06
2018-08-23T00:01:12.122Z,93.82
2018-08-23T00:02:12.119Z,93.63
2018-08-23T00:03:12.115Z,93.63
2018-08-23T00:04:12.110Z,93.73
2018-08-23T00:05:12.109Z,94.21
2018-08-23T00:06:12.102Z,93.68
2018-08-23T00:07:12.098Z,94.40
2018-08-23T00:08:12.095Z,94.16
2018-08-23T00:09:12.091Z,94.40
2018-08-23T00:10:12.118Z,94.11
2018-08-23T00:11:12.083Z,93.92
2018-08-23T00:12:12.079Z,94.35
2018-08-23T00:13:12.076Z,93.92
2018-08-23T00:14:12.072Z,94.06
2018-08-23T00:15:12.070Z,94.11
2018-08-23T00:16:12.063Z,94.98
2018-08-23T00:17:12.059Z,94.49
2018-08-23T00:18:12.056Z,94.88
2018-08-23T00:19:12.050Z,95.07
2018-08-23T00:20:12.047Z,94.69
2018-08-23T00:21:12.043Z,94.88
2018-08-23T00:22:12.039Z,94.88
2018-08-23T00:23:12.034Z,94.78
2018-08-23T00:24:12.030Z,94.88
2018-08-23T00:25:12.026Z,94.88
2018-08-23T00:26:12.023Z,95.17
2018-08-23T00:27:12.045Z,94.98
2018-08-23T00:28:12.017Z,95.84
2018-08-23T00:29:12.015Z,95.65
2018-08-23T00:30:12.006Z,95.65
2018-08-23T00:31:12.000Z,95.84
2018-08-23T00:32:11.996Z,95.36
2018-08-23T00:33:11.993Z,95.55
2018-08-23T00:34:11.988Z,95.36
2018-08-23T00:35:11.983Z,95.21
2018-08-23T00:36:11.978Z,95.70
2018-08-23T00:37:11.974Z,95.89
2018-08-23T00:38:11.970Z,96.85
2018-08-23T00:39:11.964Z,96.08
2018-08-23T00:40:11.960Z,96.27
2018-08-23T00:41:11.956Z,96.56
2018-08-23T00:42:11.952Z,96.66
2018-08-23T00:43:11.946Z,96.47
2018-08-23T00:44:11.942Z,96.56
2018-08-23T00:45:11.938Z,96.94
2018-08-23T00:46:11.935Z,97.24
2018-08-23T00:47:11.929Z,96.18
2018-08-23T00:48:11.924Z,96.37
2018-08-23T00:49:11.921Z,95.70
2018-08-23T00:50:11.916Z,95.89
2018-08-23T00:51:11.910Z,96.37
2018-08-23T00:52:11.918Z,96.85
2018-08-23T00:53:11.902Z,96.94
2018-08-23T00:54:11.902Z,97.42
2018-08-23T00:55:11.893Z,97.24
2018-08-23T00:56:11.888Z,97.14
2018-08-23T00:57:11.888Z,97.42
2018-08-23T00:58:11.884Z,97.04
2018-08-23T00:59:11.877Z,97.42
2018-08-23T01:00:11.870Z,97.14
2018-08-23T01:01:11.866Z,97.42
2018-08-23T01:02:11.862Z,97.33
2018-08-23T01:03:11.857Z,97.81
2018-08-23T01:04:11.853Z,97.91
2018-08-23T01:05:11.848Z,98.38
2018-08-23T01:06:11.847Z,98.33
2018-08-23T01:07:11.838Z,98.19
2018-08-23T01:08:11.834Z,97.91
2018-08-23T01:09:11.834Z,97.91
2018-08-23T01:10:11.826Z,98.24
2018-08-23T01:11:11.820Z,98.14
2018-08-23T01:12:11.816Z,98.33
2018-08-23T01:13:11.811Z,98.33
2018-08-23T01:14:11.807Z,98.24
2018-08-23T01:15:11.801Z,98.24
2018-08-23T01:16:11.797Z,98.24
2018-08-23T01:17:11.799Z,98.62
2018-08-23T01:18:11.787Z,98.24
2018-08-23T01:19:11.782Z,98.43
2018-08-23T01:20:11.808Z,98.62
2018-08-23T01:21:11.776Z,98.43
2018-08-23T01:22:11.772Z,98.53
2018-08-23T01:23:11.763Z,98.91
2018-08-23T01:24:11.761Z,99.10
2018-08-23T01:25:11.753Z,99.29
2018-08-23T01:26:11.752Z,99.29
2018-08-23T01:27:11.743Z,98.62
2018-08-23T01:28:11.738Z,98.72
2018-08-23T01:29:11.733Z,98.24
2018-08-23T01:30:11.729Z,98.24
2018-08-23T01:31:11.722Z,98.82
2018-08-23T01:32:11.718Z,99.29
2018-08-23T01:33:11.713Z,98.91
2018-08-23T01:34:11.709Z,99.29
2018-08-23T01:35:11.704Z,98.62
2018-08-23T01:36:11.698Z,98.43
2018-08-23T01:37:11.694Z,98.53
2018-08-23T01:38:11.688Z,98.14
2018-08-23T01:39:11.683Z,97.95
2018-08-23T01:40:11.679Z,98.33
2018-08-23T01:41:11.675Z,98.38
2018-08-23T01:42:11.669Z,98.62
2018-08-23T01:43:11.664Z,98.28
2018-08-23T01:44:11.658Z,99.15
2018-08-23T01:45:11.654Z,99.15
2018-08-23T01:46:11.650Z,99.10
2018-08-23T01:47:11.644Z,99.39
2018-08-23T01:48:11.643Z,99.24
2018-08-23T01:49:11.635Z,99.39
2018-08-23T01:50:11.631Z,98.91
2018-08-23T01:51:11.624Z,99.44
2018-08-23T01:52:11.620Z,98.86
2018-08-23T01:53:11.614Z,98.91
2018-08-23T01:54:11.610Z,99.05
2018-08-23T01:55:11.604Z,98.67
2018-08-23T01:56:11.600Z,99.34
2018-08-23T01:57:11.594Z,99.44
2018-08-23T01:58:11.590Z,99.34
2018-08-23T01:59:11.584Z,99.34
2018-08-23T02:00:11.580Z,99.44
2018-08-23T02:01:11.574Z,99.44
2018-08-23T02:02:11.570Z,99.53
2018-08-23T02:03:11.564Z,99.24
2018-08-23T02:04:11.560Z,99.15
2018-08-23T02:05:11.555Z,99.44
2018-08-23T02:06:11.550Z,99.91
2018-08-23T02:07:11.545Z,99.63
2018-08-23T02:08:11.542Z,99.99
2018-08-23T02:09:11.536Z,99.99
2018-08-23T02:10:11.534Z,99.91
2018-08-23T02:11:11.527Z,99.99
2018-08-23T02:12:11.520Z,99.82
2018-08-23T02:13:11.516Z,99.63
2018-08-23T02:14:11.511Z,99.73
2018-08-23T02:15:11.505Z,99.99
2018-08-23T02:16:11.501Z,99.73
2018-08-23T02:18:11.491Z,99.99
2018-08-23T02:19:11.485Z,99.99
2018-08-23T02:20:11.481Z,99.99
2018-08-23T02:21:11.476Z,99.91
2018-08-23T02:22:11.474Z,99.53
2018-08-23T02:23:11.465Z,99.53
2018-08-23T02:24:11.460Z,99.24
2018-08-23T02:25:11.456Z,99.44
2018-08-23T02:26:11.451Z,99.44
2018-08-23T02:27:11.445Z,99.63
2018-08-23T02:28:11.486Z,99.77
2018-08-23T02:29:11.441Z,99.99
2018-08-23T02:30:11.432Z,99.73
2018-08-23T02:31:11.428Z,99.73
2018-08-23T02:32:11.421Z,99.99
2018-08-23T02:33:11.416Z,99.99
2018-08-23T02:34:11.413Z,99.99
2018-08-23T02:35:11.406Z,99.99
2018-08-23T02:36:11.401Z,99.99
2018-08-23T02:37:11.396Z,99.99
2018-08-23T02:38:11.457Z,99.99
2018-08-23T02:39:11.386Z,99.99
2018-08-23T02:40:11.383Z,99.99
2018-08-23T02:41:11.377Z,99.99
2018-08-23T02:42:11.372Z,99.99
2018-08-23T02:43:11.367Z,99.99
2018-08-23T02:44:11.361Z,99.99
2018-08-23T02:45:11.357Z,99.99
2018-08-23T02:46:11.352Z,99.99
2018-08-23T02:47:11.346Z,99.99
2018-08-23T02:48:11.341Z,99.99
2018-08-23T02:49:11.336Z,99.99
2018-08-23T02:50:11.332Z,99.99
2018-08-23T02:51:11.326Z,99.99
2018-08-23T02:52:11.321Z,99.99
2018-08-23T02:53:11.316Z,99.99
2018-08-23T02:54:11.311Z,99.99
2018-08-23T02:55:11.306Z,99.99
2018-08-23T02:56:11.302Z,99.99
2018-08-23T02:57:11.296Z,99.99
2018-08-23T02:58:11.291Z,99.99
2018-08-23T02:59:11.285Z,99.99
2018-08-23T03:00:11.280Z,99.99
2018-08-23T03:01:11.275Z,99.99
2018-08-23T03:02:11.270Z,99.99
2018-08-23T03:03:11.265Z,99.99
2018-08-23T03:04:11.259Z,99.99
2018-08-23T03:05:11.255Z,99.99
2018-08-23T03:06:11.250Z,99.99
2018-08-23T03:07:11.244Z,99.99
2018-08-23T03:08:11.240Z,99.99
2018-08-23T03:09:11.234Z,99.99
2018-08-23T03:10:11.229Z,99.99
2018-08-23T03:11:11.223Z,99.99
2018-08-23T03:12:11.218Z,99.99
2018-08-23T03:13:11.214Z,99.99
2018-08-23T03:14:11.291Z,99.99
2018-08-23T03:15:11.203Z,99.99
2018-08-23T03:16:11.198Z,99.99
2018-08-23T03:17:11.192Z,99.99
2018-08-23T03:18:11.188Z,99.99
2018-08-23T03:19:11.182Z,99.99
2018-08-23T03:20:11.177Z,99.99
2018-08-23T03:21:11.172Z,99.99
2018-08-23T03:22:11.169Z,99.99
2018-08-23T03:23:11.162Z,99.99
2018-08-23T03:24:11.156Z,99.99
2018-08-23T03:25:11.151Z,99.99
2018-08-23T03:26:11.148Z,99.99
2018-08-23T03:27:11.140Z,99.99
2018-08-23T03:28:11.135Z,99.99
2018-08-23T03:29:11.130Z,99.99
2018-08-23T03:30:11.125Z,99.99
2018-08-23T03:31:11.119Z,99.99
2018-08-23T03:32:11.115Z,99.99
2018-08-23T03:33:11.110Z,99.99
2018-08-23T03:34:11.104Z,99.99
2018-08-23T03:35:11.098Z,99.99
2018-08-23T03:36:11.093Z,99.99
2018-08-23T03:37:11.089Z,99.99
2018-08-23T03:38:11.082Z,99.99
2018-08-23T03:39:11.077Z,99.99
2018-08-23T03:40:11.072Z,99.99
2018-08-23T03:41:11.067Z,99.99
2018-08-23T03:42:11.064Z,99.99
2018-08-23T03:43:11.055Z,99.99
2018-08-23T03:44:11.050Z,99.99
2018-08-23T03:45:11.045Z,99.99
2018-08-23T03:46:11.040Z,99.99
2018-08-23T03:47:11.034Z,99.99
2018-08-23T03:48:11.029Z,99.99
2018-08-23T03:49:11.024Z,99.99
2018-08-23T03:50:11.019Z,99.99
2018-08-23T03:51:11.015Z,99.99
2018-08-23T03:52:11.008Z,99.99
2018-08-23T03:53:11.002Z,99.99
2018-08-23T03:54:10.999Z,99.99
2018-08-23T03:55:10.992Z,99.99
2018-08-23T03:56:10.986Z,99.99
2018-08-23T03:57:10.981Z,99.99
2018-08-23T03:58:10.975Z,99.99
2018-08-23T03:59:10.969Z,99.99
2018-08-23T04:00:10.964Z,99.99
2018-08-23T04:01:10.959Z,99.99
2018-08-23T04:02:10.954Z,99.99
2018-08-23T04:03:10.948Z,99.99
2018-08-23T04:04:10.942Z,99.99
2018-08-23T04:05:10.937Z,99.99
2018-08-23T04:06:10.932Z,99.99
2018-08-23T04:07:10.926Z,99.99
2018-08-23T04:08:10.921Z,99.99
2018-08-23T04:09:10.915Z,99.99
2018-08-23T04:10:10.910Z,99.99
2018-08-23T04:11:10.907Z,99.99
2018-08-23T04:12:10.898Z,99.99
2018-08-23T04:13:10.893Z,99.99
2018-08-23T04:14:10.888Z,99.99
2018-08-23T04:15:10.919Z,99.99
2018-08-23T04:16:10.876Z,99.99
2018-08-23T04:17:10.871Z,99.99
2018-08-23T04:18:10.866Z,99.99
2018-08-23T04:19:10.863Z,99.99
2018-08-23T04:20:10.867Z,99.99
2018-08-23T04:21:10.849Z,99.99
2018-08-23T04:22:10.843Z,99.99
2018-08-23T04:23:10.837Z,99.99
2018-08-23T04:24:10.833Z,99.99
2018-08-23T04:25:10.829Z,99.99
2018-08-23T04:26:10.821Z,99.99
2018-08-23T04:27:10.815Z,99.99
2018-08-23T04:28:10.808Z,99.99
2018-08-23T04:29:10.803Z,99.99
2018-08-23T04:30:10.797Z,99.99
2018-08-23T04:31:10.791Z,99.99
2018-08-23T04:32:10.786Z,99.99
2018-08-23T04:33:10.783Z,99.99
2018-08-23T04:34:10.774Z,99.99
2018-08-23T04:35:10.767Z,99.99
2018-08-23T04:36:10.762Z,99.99
2018-08-23T04:37:10.756Z,99.99
2018-08-23T04:38:10.751Z,99.99
2018-08-23T04:39:10.745Z,99.99
2018-08-23T04:40:10.746Z,99.99
2018-08-23T04:41:10.734Z,99.99
2018-08-23T04:42:10.729Z,99.99
2018-08-23T04:43:10.771Z,99.99
2018-08-23T04:44:10.721Z,99.99
2018-08-23T04:45:10.711Z,99.99
2018-08-23T04:46:10.706Z,99.99
2018-08-23T04:47:10.699Z,99.99
2018-08-23T04:48:10.694Z,99.99
2018-08-23T04:49:10.689Z,99.99
2018-08-23T04:50:10.683Z,99.99
2018-08-23T04:51:10.679Z,99.99
2018-08-23T04:52:10.673Z,99.99
2018-08-23T04:53:10.665Z,99.99
2018-08-23T04:54:10.660Z,99.99
2018-08-23T04:55:10.653Z,99.99
2018-08-23T04:56:10.647Z,99.99
2018-08-23T04:57:10.641Z,99.99
2018-08-23T04:58:10.636Z,99.99
2018-08-23T04:59:10.631Z,99.99
2018-08-23T05:00:10.624Z,99.99
2018-08-23T05:01:10.619Z,99.99
2018-08-23T05:02:10.617Z,99.99
2018-08-23T05:03:10.606Z,99.99
2018-08-23T05:04:10.710Z,99.99
2018-08-23T05:05:10.595Z,99.99
2018-08-23T05:06:10.591Z,99.99
2018-08-23T05:07:10.584Z,99.99
2018-08-23T05:08:10.578Z,99.99
2018-08-23T05:09:10.574Z,99.99
2018-08-23T05:10:10.569Z,99.99
2018-08-23T05:11:10.562Z,99.99
2018-08-23T05:12:10.557Z,99.99
2018-08-23T05:13:10.553Z,99.99
2018-08-23T05:14:10.613Z,99.99
2018-08-23T05:15:10.542Z,99.99
2018-08-23T05:16:10.537Z,99.99
2018-08-23T05:17:10.530Z,99.99
2018-08-23T05:18:10.525Z,99.99
2018-08-23T05:19:10.519Z,99.99
2018-08-23T05:20:10.513Z,99.99
2018-08-23T05:21:10.509Z,99.99
2018-08-23T05:22:10.505Z,99.99
2018-08-23T05:23:10.589Z,99.99
2018-08-23T05:24:10.492Z,99.99
2018-08-23T05:25:10.487Z,99.99
2018-08-23T05:26:10.482Z,99.99
2018-08-23T05:27:10.476Z,99.99
2018-08-23T05:28:10.472Z,99.99
2018-08-23T05:29:10.467Z,99.99
2018-08-23T05:30:10.462Z,99.99
2018-08-23T05:31:10.456Z,99.99
2018-08-23T05:32:10.451Z,99.99
2018-08-23T05:33:10.446Z,99.99
2018-08-23T05:34:10.441Z,99.99
2018-08-23T05:35:10.435Z,99.99
2018-08-23T05:36:10.434Z,99.99
2018-08-23T05:37:10.426Z,99.99
2018-08-23T05:38:10.421Z,99.99
2018-08-23T05:39:10.415Z,99.99
2018-08-23T05:40:10.411Z,99.99
2018-08-23T05:41:10.405Z,99.99
2018-08-23T05:42:10.401Z,99.99
2018-08-23T05:43:10.396Z,99.99
2018-08-23T05:44:10.391Z,99.99
2018-08-23T05:45:10.387Z,99.99
2018-08-23T05:46:10.381Z,99.99
2018-08-23T05:47:10.376Z,99.99
2018-08-23T05:48:10.371Z,99.99
2018-08-23T05:49:10.367Z,99.99
2018-08-23T05:50:10.362Z,99.99
2018-08-23T05:51:10.357Z,99.99
2018-08-23T05:52:10.352Z,99.99
2018-08-23T05:53:10.348Z,99.99
2018-08-23T05:54:10.347Z,99.99
2018-08-23T05:55:10.339Z,99.99
2018-08-23T05:56:10.334Z,99.99
2018-08-23T05:57:10.330Z,99.68
2018-08-23T05:58:10.329Z,99.87
2018-08-23T05:59:10.321Z,99.77
2018-08-23T06:00:10.317Z,99.73
2018-08-23T06:01:10.317Z,99.10
2018-08-23T06:02:10.310Z,98.58
2018-08-23T06:03:10.304Z,98.86
2018-08-23T06:04:10.300Z,98.38
2018-08-23T06:05:10.296Z,98.58
2018-08-23T06:06:10.292Z,97.91
2018-08-23T06:07:10.288Z,97.24
2018-08-23T06:08:10.345Z,97.52
2018-08-23T06:09:10.279Z,96.56
2018-08-23T06:10:10.276Z,96.94
2018-08-23T06:11:10.272Z,97.71
2018-08-23T06:12:10.267Z,97.33
2018-08-23T06:13:10.264Z,97.24
2018-08-23T06:14:10.282Z,97.04
2018-08-23T06:15:10.255Z,96.89
2018-08-23T06:16:10.253Z,96.70
2018-08-23T06:17:10.250Z,96.70
2018-08-23T06:18:10.251Z,96.42
2018-08-23T06:19:10.238Z,96.22
2018-08-23T06:20:10.291Z,95.70
2018-08-23T06:21:10.231Z,95.17
2018-08-23T06:22:10.228Z,94.93
2018-08-23T06:23:10.226Z,94.93
2018-08-23T06:24:10.219Z,93.77
2018-08-23T06:25:10.216Z,94.35
2018-08-23T06:26:10.212Z,93.87
2018-08-23T06:27:10.208Z,93.77
2018-08-23T06:28:10.205Z,93.05
2018-08-23T06:29:10.201Z,92.86
2018-08-23T06:30:10.199Z,93.05
2018-08-23T06:31:10.194Z,92.86
2018-08-23T06:32:10.201Z,92.67
2018-08-23T06:33:10.348Z,92.19
2018-08-23T06:34:10.210Z,91.90
2018-08-23T06:35:10.181Z,92.19
2018-08-23T06:36:10.178Z,91.99
2018-08-23T06:37:10.175Z,91.13
2018-08-23T06:38:10.176Z,91.52
2018-08-23T06:39:10.174Z,92.29
2018-08-23T06:40:10.165Z,92.47
2018-08-23T06:41:10.163Z,91.42
2018-08-23T06:42:10.160Z,91.61
2018-08-23T06:43:10.155Z,91.32
2018-08-23T06:44:10.153Z,91.17
2018-08-23T06:45:10.150Z,90.89
2018-08-23T06:46:10.175Z,90.89
2018-08-23T06:47:10.144Z,91.17
2018-08-23T06:48:10.141Z,90.55
2018-08-23T06:49:10.139Z,90.06
2018-08-23T06:50:10.136Z,89.29
2018-08-23T06:51:10.174Z,89.54
2018-08-23T06:52:10.132Z,88.71
2018-08-23T06:53:10.127Z,89.29
2018-08-23T06:54:10.126Z,89.58
2018-08-23T06:55:10.122Z,89.49
2018-08-23T06:56:10.119Z,89.39
2018-08-23T06:57:10.117Z,89.05
2018-08-23T06:58:10.119Z,88.47
2018-08-23T06:59:10.111Z,87.99
2018-08-23T07:00:10.110Z,87.22
2018-08-23T07:01:10.106Z,87.80
2018-08-23T07:02:10.104Z,87.41
2018-08-23T07:03:10.101Z,87.41
2018-08-23T07:04:10.099Z,87.70
2018-08-23T07:05:10.097Z,87.60
2018-08-23T07:06:10.095Z,86.98
2018-08-23T07:07:10.112Z,86.40
2018-08-23T07:08:10.095Z,86.01
2018-08-23T07:09:10.088Z,85.82
2018-08-23T07:10:10.086Z,85.82
2018-08-23T07:11:10.083Z,86.15
2018-08-23T07:12:10.081Z,85.09
2018-08-23T07:13:10.080Z,84.80
2018-08-23T07:14:10.078Z,84.99
2018-08-23T07:15:10.076Z,84.52
2018-08-23T07:16:10.075Z,84.80
2018-08-23T07:17:10.141Z,84.94
2018-08-23T07:18:10.073Z,84.84
2018-08-23T07:19:10.072Z,83.59
2018-08-23T07:20:10.071Z,83.34
2018-08-23T07:21:10.088Z,82.09
2018-08-23T07:22:10.072Z,82.96
2018-08-23T07:23:10.071Z,82.09
2018-08-23T07:24:10.091Z,81.51
2018-08-23T07:25:10.072Z,80.68
2018-08-23T07:26:10.077Z,80.87
2018-08-23T07:27:10.119Z,81.07
2018-08-23T07:28:10.077Z,81.84
2018-08-23T07:29:10.092Z,81.26
2018-08-23T07:30:10.116Z,80.62
2018-08-23T07:31:10.084Z,79.75
2018-08-23T07:32:10.088Z,79.12
2018-08-23T07:33:10.103Z,77.86
2018-08-23T07:34:10.096Z,77.28
2018-08-23T07:35:10.099Z,77.86
2018-08-23T07:36:10.104Z,77.57
2018-08-23T07:37:10.109Z,76.95
2018-08-23T07:38:10.166Z,77.09
2018-08-23T07:39:10.129Z,77.48
2018-08-23T07:40:10.123Z,77.19
2018-08-23T07:41:10.129Z,77.96
2018-08-23T07:42:10.134Z,76.80
2018-08-23T07:43:10.237Z,76.70
2018-08-23T07:44:10.145Z,76.32
2018-08-23T07:45:10.151Z,76.70
2018-08-23T07:46:10.157Z,76.22
2018-08-23T07:47:10.164Z,75.39
2018-08-23T07:48:10.169Z,75.84
2018-08-23T07:49:10.175Z,75.26
2018-08-23T07:50:10.229Z,75.93
2018-08-23T07:51:10.187Z,75.87
2018-08-23T07:52:10.194Z,75.29
2018-08-23T07:53:10.334Z,74.71
2018-08-23T07:54:10.207Z,74.90
2018-08-23T07:55:10.217Z,75.00
2018-08-23T07:56:10.219Z,74.52
2018-08-23T07:57:10.226Z,74.52
2018-08-23T07:58:10.233Z,75.00
2018-08-23T07:59:10.238Z,73.94
2018-08-23T08:00:10.245Z,74.32
2018-08-23T08:01:10.252Z,74.07
2018-08-23T08:02:10.259Z,74.07
2018-08-23T08:03:10.265Z,73.97
2018-08-23T08:04:10.273Z,73.63
2018-08-23T08:05:10.284Z,72.95
2018-08-23T08:06:10.288Z,72.46
2018-08-23T08:07:10.295Z,72.75
2018-08-23T08:08:10.303Z,72.11
2018-08-23T08:09:10.311Z,72.11
2018-08-23T08:10:10.319Z,71.44
2018-08-23T08:11:10.327Z,71.53
2018-08-23T08:12:10.361Z,71.53
2018-08-23T08:13:10.344Z,70.27
2018-08-23T08:14:10.353Z,70.95
2018-08-23T08:15:10.651Z,71.44
2018-08-23T08:16:10.369Z,71.44
2018-08-23T08:17:10.377Z,71.11
2018-08-23T08:18:10.387Z,71.11
2018-08-23T08:19:10.394Z,71.98
2018-08-23T08:20:10.403Z,71.59
2018-08-23T08:21:10.411Z,71.50
2018-08-23T08:22:10.420Z,71.04
2018-08-23T08:23:10.428Z,71.30
2018-08-23T08:24:10.437Z,71.24
2018-08-23T08:25:10.445Z,70.76
2018-08-23T08:26:10.454Z,70.95
2018-08-23T08:27:10.532Z,70.95
2018-08-23T08:28:10.472Z,71.24
2018-08-23T08:29:10.484Z,70.47
2018-08-23T08:30:10.489Z,70.50
2018-08-23T08:31:10.497Z,69.82
2018-08-23T08:32:10.507Z,70.34
2018-08-23T08:33:10.584Z,69.12
2018-08-23T08:34:10.528Z,69.41
2018-08-23T08:35:10.535Z,68.34
2018-08-23T08:36:10.545Z,68.73
2018-08-23T08:37:10.557Z,68.44
2018-08-23T08:38:10.565Z,67.37
2018-08-23T08:39:10.573Z,66.66
2018-08-23T08:40:10.584Z,67.14
2018-08-23T08:41:10.595Z,65.98
2018-08-23T08:42:10.605Z,65.98
2018-08-23T08:43:10.614Z,67.02
2018-08-23T08:44:10.628Z,66.44
2018-08-23T08:45:10.636Z,66.50
2018-08-23T08:46:10.646Z,67.31
2018-08-23T08:47:10.655Z,66.44
2018-08-23T08:48:10.667Z,66.63
2018-08-23T08:49:10.678Z,67.21
2018-08-23T08:50:10.689Z,67.31
2018-08-23T08:51:10.698Z,66.82
2018-08-23T08:52:10.710Z,65.75
2018-08-23T08:53:10.720Z,66.79
2018-08-23T08:54:10.732Z,66.47
2018-08-23T08:55:10.741Z,68.60
2018-08-23T08:56:10.751Z,67.85
2018-08-23T08:57:10.772Z,67.27
2018-08-23T08:58:10.773Z,67.11
2018-08-23T08:59:10.786Z,66.86
2018-08-23T09:00:10.794Z,65.69
2018-08-23T09:01:10.805Z,65.79
2018-08-23T09:02:10.816Z,66.27
2018-08-23T09:03:10.842Z,65.69
2018-08-23T09:04:10.837Z,64.72
2018-08-23T09:05:10.849Z,64.33
2018-08-23T09:06:10.860Z,64.36
2018-08-23T09:07:10.870Z,64.56
2018-08-23T09:08:10.881Z,64.95
2018-08-23T09:09:10.892Z,64.20
2018-08-23T09:10:10.904Z,63.91
2018-08-23T09:11:10.917Z,62.87
2018-08-23T09:12:10.927Z,62.68
2018-08-23T09:13:10.939Z,62.29
2018-08-23T09:14:10.951Z,62.35
2018-08-23T09:15:10.962Z,61.97
2018-08-23T09:16:10.974Z,62.16
2018-08-23T09:17:10.986Z,62.10
2018-08-23T09:18:10.998Z,61.22
2018-08-23T09:19:11.009Z,61.97
2018-08-23T09:20:11.021Z,61.32
2018-08-23T09:21:11.033Z,62.65
2018-08-23T09:22:11.045Z,61.94
2018-08-23T09:23:11.056Z,62.98
2018-08-23T09:24:11.068Z,63.85
2018-08-23T09:25:11.125Z,64.95
2018-08-23T09:26:11.091Z,64.01
2018-08-23T09:27:11.105Z,62.84
2018-08-23T09:28:11.115Z,62.13
2018-08-23T09:29:11.125Z,63.78
2018-08-23T09:30:11.138Z,62.52
2018-08-23T09:31:11.148Z,63.78
2018-08-23T09:32:11.229Z,62.62
2018-08-23T09:33:11.172Z,62.13
2018-08-23T09:34:11.183Z,62.42
2018-08-23T09:35:11.320Z,62.23
2018-08-23T09:36:11.205Z,62.32
2018-08-23T09:37:11.216Z,62.62
2018-08-23T09:38:11.228Z,61.58
2018-08-23T09:39:11.238Z,61.22
2018-08-23T09:40:11.250Z,59.86
2018-08-23T09:41:11.261Z,59.83
2018-08-23T09:42:11.273Z,60.61
2018-08-23T09:43:11.285Z,60.38
2018-08-23T09:44:11.295Z,60.58
2018-08-23T09:45:11.309Z,60.68
2018-08-23T09:46:11.318Z,61.19
2018-08-23T09:47:11.328Z,61.12
2018-08-23T09:48:11.340Z,60.31
2018-08-23T09:49:11.351Z,60.51
2018-08-23T09:50:11.435Z,60.90
2018-08-23T09:51:11.430Z,60.64
2018-08-23T09:52:11.425Z,59.95
2018-08-23T09:53:11.401Z,60.83
2018-08-23T09:54:11.409Z,60.25
2018-08-23T09:55:11.420Z,60.05
2018-08-23T09:56:11.432Z,60.74
2018-08-23T09:57:11.443Z,59.41
2018-08-23T09:58:11.455Z,58.82
2018-08-23T09:59:11.466Z,58.72
2018-08-23T10:00:11.477Z,58.43
2018-08-23T10:01:11.490Z,59.79
2018-08-23T10:02:11.502Z,57.95
2018-08-23T10:03:11.513Z,58.72
2018-08-23T10:04:11.529Z,58.50
2018-08-23T10:05:11.539Z,58.14
2018-08-23T10:06:11.549Z,58.79
2018-08-23T10:07:11.560Z,58.92
2018-08-23T10:08:11.572Z,58.89
2018-08-23T10:09:11.584Z,58.67
2018-08-23T10:10:11.598Z,60.22
2018-08-23T10:11:11.608Z,61.29
2018-08-23T10:12:11.619Z,59.67
2018-08-23T10:13:11.631Z,59.25
2018-08-23T10:14:11.642Z,59.92
2018-08-23T10:15:11.653Z,59.83
2018-08-23T10:16:11.664Z,59.15
2018-08-23T10:17:11.676Z,59.15
2018-08-23T10:18:11.688Z,60.77
2018-08-23T10:19:11.698Z,60.02
2018-08-23T10:20:11.710Z,60.15
2018-08-23T10:21:11.722Z,59.74
2018-08-23T10:22:11.733Z,59.86
2018-08-23T10:23:11.744Z,59.41
2018-08-23T10:24:11.756Z,60.79
2018-08-23T10:25:11.768Z,57.29
2018-08-23T10:26:11.780Z,57.97
2018-08-23T10:27:11.791Z,58.07
2018-08-23T10:28:11.805Z,57.87
2018-08-23T10:29:11.816Z,56.90
2018-08-23T10:30:11.827Z,57.78
2018-08-23T10:31:11.841Z,57.59
2018-08-23T10:32:11.977Z,58.07
2018-08-23T10:33:11.866Z,56.41
2018-08-23T10:34:11.875Z,57.49
2018-08-23T10:35:11.886Z,58.17
2018-08-23T10:36:11.898Z,56.61
2018-08-23T10:37:11.910Z,57.51
2018-08-23T10:38:11.976Z,57.42
2018-08-23T10:39:11.934Z,56.18
2018-08-23T10:40:11.947Z,55.99
2018-08-23T10:41:11.965Z,57.15
2018-08-23T10:42:11.973Z,56.27
2018-08-23T10:43:11.983Z,56.47
2018-08-23T10:44:12.003Z,55.57
2018-08-23T10:45:12.009Z,56.67
2018-08-23T10:46:12.023Z,55.99
2018-08-23T10:47:12.037Z,56.27
2018-08-23T10:48:12.049Z,55.79
2018-08-23T10:49:12.057Z,56.35
2018-08-23T10:50:12.070Z,56.96
2018-08-23T10:51:12.260Z,56.47
2018-08-23T10:52:12.095Z,56.18
2018-08-23T10:53:12.107Z,58.78
2018-08-23T10:54:12.120Z,57.90
2018-08-23T10:55:12.131Z,57.87
2018-08-23T10:56:12.143Z,57.97
2018-08-23T10:57:12.155Z,59.01
2018-08-23T10:58:12.170Z,59.14
2018-08-23T10:59:12.373Z,59.14
2018-08-23T11:00:12.188Z,58.75
2018-08-23T11:01:12.200Z,59.14
2018-08-23T11:02:12.215Z,58.56
2018-08-23T11:03:12.222Z,58.59
2018-08-23T11:04:12.236Z,59.23
2018-08-23T11:05:12.246Z,59.41
2018-08-23T11:06:12.258Z,60.57
2018-08-23T11:07:12.267Z,60.15
2018-08-23T11:08:12.280Z,60.28
2018-08-23T11:09:12.290Z,60.05
2018-08-23T11:10:12.304Z,61.15
2018-08-23T11:11:12.312Z,59.46
2018-08-23T11:12:12.323Z,59.07
2018-08-23T11:13:12.338Z,59.75
2018-08-23T11:14:12.346Z,58.29
2018-08-23T11:15:12.356Z,57.97
2018-08-23T11:16:12.371Z,57.90
2018-08-23T11:17:12.469Z,59.66
2018-08-23T11:18:12.391Z,58.10
2018-08-23T11:19:12.401Z,57.61
2018-08-23T11:20:12.413Z,57.90
2018-08-23T11:21:12.424Z,58.81
2018-08-23T11:22:12.435Z,57.06
2018-08-23T11:23:12.489Z,57.64
2018-08-23T11:24:12.457Z,57.54
2018-08-23T11:25:12.469Z,58.39
2018-08-23T11:26:12.480Z,59.10
2018-08-23T11:27:12.493Z,57.90
2018-08-23T11:28:12.502Z,59.23
2018-08-23T11:29:12.514Z,58.95
2018-08-23T11:30:12.525Z,59.43
2018-08-23T11:31:12.535Z,60.02
2018-08-23T11:32:12.549Z,59.41
2018-08-23T11:33:12.558Z,59.50
2018-08-23T11:34:12.569Z,59.76
2018-08-23T11:35:12.681Z,60.38
2018-08-23T11:36:12.590Z,60.25
2018-08-23T11:37:12.605Z,60.54
2018-08-23T11:38:12.611Z,60.83
2018-08-23T11:39:12.621Z,60.93
2018-08-23T11:40:12.632Z,61.12
2018-08-23T11:41:12.642Z,61.19
2018-08-23T11:42:12.652Z,61.41
2018-08-23T11:43:12.663Z,60.57
2018-08-23T11:44:12.673Z,60.08
2018-08-23T11:45:12.683Z,59.89
2018-08-23T11:46:12.693Z,59.69
2018-08-23T11:47:12.703Z,60.79
2018-08-23T11:48:12.714Z,59.23
2018-08-23T11:49:12.726Z,59.05
2018-08-23T11:50:12.735Z,59.05
2018-08-23T11:51:12.747Z,59.05
2018-08-23T11:52:12.755Z,58.49
2018-08-23T11:53:12.812Z,60.89
2018-08-23T11:54:12.777Z,60.60
2018-08-23T11:55:12.787Z,59.63
2018-08-23T11:56:12.802Z,59.43
2018-08-23T11:57:12.808Z,58.49
2018-08-23T11:58:12.818Z,59.27
2018-08-23T11:59:12.885Z,58.71
2018-08-23T12:00:12.845Z,57.12
2018-08-23T12:01:12.850Z,56.84
2018-08-23T12:02:12.861Z,58.00
2018-08-23T12:03:12.872Z,57.90
2018-08-23T12:04:12.881Z,58.97
2018-08-23T12:05:12.892Z,58.13
2018-08-23T12:06:12.903Z,57.93
2018-08-23T12:07:12.913Z,56.40
2018-08-23T12:08:12.924Z,56.09
2018-08-23T12:09:12.935Z,57.35
2018-08-23T12:10:12.946Z,58.22
2018-08-23T12:11:12.958Z,57.51
2018-08-23T12:12:12.967Z,57.74
2018-08-23T12:13:12.977Z,57.37
2018-08-23T12:14:12.990Z,56.70
2018-08-23T12:15:12.997Z,56.18
2018-08-23T12:16:13.008Z,56.47
2018-08-23T12:17:13.019Z,57.54
2018-08-23T12:18:13.030Z,56.67
2018-08-23T12:19:13.039Z,56.37
2018-08-23T12:20:13.050Z,56.60
2018-08-23T12:21:13.061Z,55.89
2018-08-23T12:22:13.072Z,57.06
2018-08-23T12:23:13.081Z,57.37
2018-08-23T12:24:13.091Z,57.89
2018-08-23T12:25:13.102Z,55.77
2018-08-23T12:26:13.188Z,54.80
2018-08-23T12:27:13.123Z,56.04
2018-08-23T12:28:13.133Z,56.11
2018-08-23T12:29:13.144Z,56.04
2018-08-23T12:30:13.154Z,55.65
2018-08-23T12:31:13.164Z,55.52
2018-08-23T12:32:13.175Z,55.82
2018-08-23T12:33:13.184Z,56.67
2018-08-23T12:34:13.194Z,57.15
2018-08-23T12:35:13.203Z,57.71
2018-08-23T12:36:13.245Z,58.56
2018-08-23T12:37:13.219Z,59.33
2018-08-23T12:38:13.229Z,59.43
2018-08-23T12:39:13.274Z,59.46
2018-08-23T12:40:13.245Z,57.81
2018-08-23T12:41:13.254Z,58.32
2018-08-23T12:42:13.263Z,56.37
2018-08-23T12:43:13.274Z,57.45
2018-08-23T12:44:13.280Z,57.71
2018-08-23T12:45:13.292Z,57.54
2018-08-23T12:46:13.302Z,57.96
2018-08-23T12:47:13.306Z,56.14
2018-08-23T12:48:13.314Z,56.82
2018-08-23T12:49:13.332Z,55.94
2018-08-23T12:50:13.333Z,56.43
2018-08-23T12:51:13.377Z,57.11
2018-08-23T12:52:13.348Z,55.75
2018-08-23T12:53:13.403Z,55.51